Mill City, Oregon
Current Conditions -  °F | °C
As of 7:56 PM on Wednesday 17 Dec 2014 (Local Time) from KSLE Reporting Station
Light Rain Light Rain  
Wind Chill: 45°   Ceiling: 3900
Heat Index: 49°   Visibility: 10mi
Dew Point: 44°   Wind: 8mph
Humidity: 83%   Direction: 210°SSW
Pressure: 29.96"   Gusts: NA
Location:  44.75°N, 122.48°W
Report Text: KSLE 180356Z 21007KT 10SM -RA BKN039 OVC055 09/07 A2996 RMK AO2 RAB22 SLP146 P0000 T00940067
Loading
Personal Weather Stations






























Interactive Weather Map New forecast layout! Learn more

10-Day Weather Forecast

Advertisements
Track Severe Weather on mobile